Time;durP1;ratioP1;P1;durP2;ratioP2;P2;SDS_P1;SDS_P2;PMS_P1;PMS_P2;Temp;Humidity;BMP_temperature;BMP_pressure;BME280_temperature;BME280_humidity;BME280_pressure;Samples;Min_cycle;Max_cycle;Signal;HPM_P1;HPM_P2
2022/06/02 00:00:05;;;;;;;19.63;14.18;;;;;;;10.00;69.24;101268.38;687922;28;1212;-81
2022/06/02 00:00:50;;;;;;;21.65;14.88;;;;;;;9.89;69.61;101258.38;685172;28;1025;-80
2022/06/02 00:01:17;;;;;;;19.67;14.10;;;;;;;10.00;69.14;101277.91;686912;28;1230;-81
2022/06/02 00:02:19;;;;;;;20.15;14.50;;;;;;;9.99;69.36;101282.25;681868;29;913;-81
2022/06/02 00:03:18;;;;;;;22.45;15.07;;;;;;;9.99;69.42;101282.25;685402;28;1171;-81
2022/06/02 00:04:23;;;;;;;21.15;14.38;;;;;;;9.95;69.28;101275.13;688020;28;832;-81
2022/06/02 00:04:50;;;;;;;21.63;15.43;;;;;;;9.96;69.16;101270.81;687432;28;858;-82
2022/06/02 00:05:22;;;;;;;23.02;15.90;;;;;;;9.93;69.52;101271.59;685176;28;1221;-79
2022/06/02 00:06:10;;;;;;;23.13;15.73;;;;;;;9.93;69.22;101268.06;685306;28;1041;-79
2022/06/02 00:07:05;;;;;;;22.85;15.93;;;;;;;10.01;69.35;101277.06;687459;28;1137;-79
2022/06/02 00:07:37;;;;;;;22.75;15.23;;;;;;;9.96;68.93;101270.81;682538;28;1295;-79
2022/06/02 00:08:10;;;;;;;22.00;15.38;;;;;;;9.94;69.11;101273.34;685194;28;1220;-80
2022/06/02 00:08:55;;;;;;;20.63;15.15;;;;;;;10.00;69.20;101288.34;682479;28;1046;-79
2022/06/02 00:09:35;;;;;;;22.17;14.32;;;;;;;9.91;69.20;101277.56;687209;28;1107;-80
2022/06/02 00:10:14;;;;;;;23.98;14.77;;;;;;;9.87;69.09;101267.03;682133;29;1118;-79
2022/06/02 00:10:59;;;;;;;22.27;14.70;;;;;;;9.98;69.17;101284.78;685329;28;1070;-79
2022/06/02 00:11:19;;;;;;;23.55;15.13;;;;;;;9.98;69.15;101284.78;695879;28;1312;-79
2022/06/02 00:12:02;;;;;;;23.45;15.40;;;;;;;9.97;69.00;101288.22;692677;28;1159;-79
2022/06/02 00:12:54;;;;;;;21.15;14.77;;;;;;;9.85;69.27;101267.78;685172;28;2018;-79
2022/06/02 00:13:27;;;;;;;21.33;14.75;;;;;;;9.97;69.38;101293.44;686386;28;1159;-79
2022/06/02 00:14:04;;;;;;;20.38;14.40;;;;;;;9.96;69.08;101289.94;682686;28;864;-79
2022/06/02 00:15:00;;;;;;;21.48;14.60;;;;;;;9.88;69.03;101273.09;683809;28;1686;-79
2022/06/02 00:15:28;;;;;;;22.15;14.82;;;;;;;9.91;69.25;101282.78;690513;28;1541;-80
2022/06/02 00:15:54;;;;;;;22.13;15.50;;;;;;;9.87;69.03;101285.28;682943;28;919;-80
2022/06/02 00:16:25;;;;;;;25.67;16.38;;;;;;;9.84;69.08;101273.84;685763;28;1170;-79
2022/06/02 00:17:07;;;;;;;25.55;15.73;;;;;;;9.92;69.14;101288.06;688013;28;1041;-80
2022/06/02 00:17:55;;;;;;;22.73;14.43;;;;;;;9.95;69.02;101289.91;685223;28;997;-79
2022/06/02 00:18:48;;;;;;;20.55;14.77;;;;;;;9.89;68.93;101284.44;687292;28;1159;-79
2022/06/02 00:19:30;;;;;;;21.58;14.45;;;;;;;9.85;69.02;101289.50;686816;28;1171;-79
2022/06/02 00:20:38;;;;;;;23.80;15.20;;;;;;;9.95;69.15;101295.13;688027;28;1171;-79
2022/06/02 00:21:25;;;;;;;20.98;13.77;;;;;;;9.92;69.13;101289.75;683638;28;1009;-79
2022/06/02 00:21:54;;;;;;;21.80;14.30;;;;;;;9.94;69.04;101289.00;686483;28;2145;-79
2022/06/02 00:22:24;;;;;;;22.33;14.55;;;;;;;9.92;68.90;101290.66;685006;28;1258;-79
2022/06/02 00:23:17;;;;;;;22.00;14.50;;;;;;;9.93;68.89;101291.53;687101;28;1033;-79
2022/06/02 00:24:06;;;;;;;21.48;14.10;;;;;;;9.96;69.01;101304.72;680959;28;1347;-80
2022/06/02 00:24:44;;;;;;;22.13;14.10;;;;;;;9.92;69.12;101300.19;678824;28;1234;-79
2022/06/02 00:25:04;;;;;;;20.98;13.90;;;;;;;9.96;68.93;101307.31;683566;28;1238;-80
2022/06/02 00:25:54;;;;;;;22.73;14.67;;;;;;;9.86;68.78;101287.81;686096;28;1044;-79
2022/06/02 00:26:44;;;;;;;21.33;13.90;;;;;;;9.96;68.86;101304.72;686003;28;1327;-79
2022/06/02 00:27:22;;;;;;;19.95;13.63;;;;;;;9.92;69.02;101301.09;689691;28;1248;-80
2022/06/02 00:27:50;;;;;;;21.58;13.70;;;;;;;9.91;68.99;101303.63;692953;28;1421;-79
2022/06/02 00:28:34;;;;;;;21.80;14.35;;;;;;;9.84;68.99;101297.31;689104;28;1255;-79
2022/06/02 00:29:09;;;;;;;19.63;13.55;;;;;;;9.93;69.10;101308.09;687367;28;1991;-79
2022/06/02 00:30:00;;;;;;;22.25;14.05;;;;;;;9.93;68.85;101307.19;682079;29;1239;-79
2022/06/02 00:30:29;;;;;;;19.20;13.45;;;;;;;9.91;69.03;101311.44;687111;28;1322;-79
2022/06/02 00:31:12;;;;;;;19.42;13.60;;;;;;;9.92;69.03;101308.00;687063;28;1403;-79
2022/06/02 00:32:00;;;;;;;21.45;14.20;;;;;;;9.91;68.80;101311.44;687798;28;1213;-79
2022/06/02 00:32:39;;;;;;;20.23;13.48;;;;;;;9.83;68.68;101299.00;687110;28;1017;-79
2022/06/02 00:33:28;;;;;;;24.25;14.10;;;;;;;9.79;69.03;101298.81;682784;28;1254;-80
2022/06/02 00:34:06;;;;;;;25.05;14.73;;;;;;;9.84;68.91;101307.72;685249;28;1853;-80
2022/06/02 00:34:39;;;;;;;21.52;14.05;;;;;;;9.88;68.77;101314.81;679401;29;1327;-79
2022/06/02 00:35:26;;;;;;;20.20;14.07;;;;;;;9.86;68.89;101317.38;687854;28;1355;-79
2022/06/02 00:35:46;;;;;;;19.85;14.30;;;;;;;9.86;68.72;101314.78;687246;28;898;-80
2022/06/02 00:36:25;;;;;;;21.73;14.32;;;;;;;9.79;68.68;101304.94;684341;28;1994;-79
2022/06/02 00:37:07;;;;;;;20.15;13.85;;;;;;;9.73;68.84;101291.66;685829;28;832;-79
2022/06/02 00:37:40;;;;;;;19.27;13.70;;;;;;;9.73;68.74;101299.47;685187;28;1260;-79
2022/06/02 00:38:06;;;;;;;21.45;13.60;;;;;;;9.79;68.70;101312.75;686842;28;1087;-79
2022/06/02 00:38:36;;;;;;;20.67;13.30;;;;;;;9.71;68.78;101298.53;687907;28;1137;-79
2022/06/02 00:38:59;;;;;;;20.02;13.40;;;;;;;9.74;68.99;101306.47;689672;28;1760;-79
2022/06/02 00:39:19;;;;;;;21.10;14.40;;;;;;;9.72;68.75;101300.31;690146;28;1277;-79
2022/06/02 00:39:40;;;;;;;20.60;14.20;;;;;;;9.77;68.91;101305.69;690131;28;1295;-79
2022/06/02 00:40:04;;;;;;;18.58;13.93;;;;;;;9.78;68.60;101313.59;687637;28;1312;-79
2022/06/02 00:40:26;;;;;;;20.08;13.20;;;;;;;9.71;68.93;101302.00;687809;28;1151;-79
2022/06/02 00:40:47;;;;;;;22.42;13.35;;;;;;;9.68;68.94;101301.00;682651;29;839;-80
2022/06/02 00:41:23;;;;;;;21.25;13.25;;;;;;;9.73;68.71;101307.28;687881;28;1038;-80
2022/06/02 00:42:10;;;;;;;18.70;13.10;;;;;;;9.70;68.98;101299.34;688210;28;1044;-79
2022/06/02 00:42:40;;;;;;;20.90;13.45;;;;;;;9.78;68.96;101315.28;692436;28;1724;-80
2022/06/02 00:43:20;;;;;;;19.15;13.50;;;;;;;9.75;68.61;101310.84;693405;28;1256;-80
2022/06/02 00:44:07;;;;;;;22.50;15.05;;;;;;;9.70;68.85;101299.34;690714;28;898;-79
2022/06/02 00:45:01;;;;;;;21.27;13.60;;;;;;;9.70;68.49;101307.16;684416;28;1270;-79
2022/06/02 00:45:22;;;;;;;20.42;13.48;;;;;;;9.69;68.89;101307.97;686748;28;1151;-80
2022/06/02 00:45:46;;;;;;;20.88;13.27;;;;;;;9.66;68.58;101300.06;687843;28;871;-79
2022/06/02 00:46:22;;;;;;;20.35;13.02;;;;;;;9.73;68.64;101318.59;687703;28;1424;-79
2022/06/02 00:47:02;;;;;;;19.38;13.02;;;;;;;9.68;68.87;101316.63;687906;28;899;-79
2022/06/02 00:47:30;;;;;;;20.55;13.50;;;;;;;9.66;68.66;101313.09;685281;28;973;-79
2022/06/02 00:48:06;;;;;;;20.60;13.15;;;;;;;9.69;68.81;101324.53;685954;28;1021;-79
2022/06/02 00:49:10;;;;;;;18.80;12.38;;;;;;;9.68;68.60;101321.84;690109;28;1084;-79
2022/06/02 00:49:54;;;;;;;19.77;13.05;;;;;;;9.65;68.52;101324.34;692077;28;1109;-79
2022/06/02 00:50:30;;;;;;;17.92;12.43;;;;;;;9.64;68.45;101323.44;690278;28;1351;-79
2022/06/02 00:51:02;;;;;;;18.02;12.40;;;;;;;9.52;68.68;101310.78;688020;28;1223;-79
2022/06/02 00:51:33;;;;;;;16.55;12.18;;;;;;;9.53;68.67;101315.19;689549;28;1999;-79
2022/06/02 00:52:17;;;;;;;17.45;12.00;;;;;;;9.58;68.47;101320.56;687634;28;1323;-78
2022/06/02 00:52:54;;;;;;;20.90;12.80;;;;;;;9.49;68.51;101315.00;686055;28;874;-80
2022/06/02 00:53:42;;;;;;;20.63;12.82;;;;;;;9.50;68.30;101317.66;688461;28;1198;-79
2022/06/02 00:57:50;;;;;;;16.42;12.00;;;;;;;9.49;68.80;101331.53;688726;28;1264;-80
2022/06/02 00:58:44;;;;;;;18.77;11.98;;;;;;;9.48;68.47;101324.53;693073;28;1557;-80
2022/06/02 00:59:59;;;;;;;17.33;12.43;;;;;;;9.40;68.57;101320.72;695390;28;989;-80
2022/06/02 01:00:30;;;;;;;17.75;12.02;;;;;;;9.39;68.71;101321.56;695697;28;1236;-79
2022/06/02 01:00:55;;;;;;;18.38;11.77;;;;;;;9.38;68.42;101322.34;692884;28;1290;-80
2022/06/02 01:01:25;;;;;;;19.70;11.95;;;;;;;9.43;68.32;101331.25;690479;28;1186;-79
2022/06/02 01:01:46;;;;;;;18.67;12.23;;;;;;;9.43;68.46;101334.78;685127;28;1073;-79
2022/06/02 01:02:06;;;;;;;17.63;12.13;;;;;;;9.40;68.72;101333.75;685057;28;1229;-80
2022/06/02 01:02:29;;;;;;;18.90;12.50;;;;;;;9.35;68.53;101315.31;684114;28;1259;-79
2022/06/02 01:02:53;;;;;;;21.05;12.55;;;;;;;9.35;68.59;101322.25;682646;29;851;-79
2022/06/02 01:03:23;;;;;;;20.60;12.68;;;;;;;9.45;68.55;101337.41;685659;28;1967;-80
2022/06/02 01:03:47;;;;;;;19.67;12.95;;;;;;;9.39;68.47;101329.38;690510;28;858;-80
2022/06/02 01:04:15;;;;;;;18.80;12.90;;;;;;;9.35;68.70;101328.34;688237;28;1194;-79
2022/06/02 01:04:41;;;;;;;19.23;12.45;;;;;;;9.39;68.63;101329.38;687209;28;1378;-79
2022/06/02 01:05:03;;;;;;;19.38;12.45;;;;;;;9.40;68.40;101333.75;684716;28;1200;-79
2022/06/02 01:05:38;;;;;;;18.23;12.32;;;;;;;9.37;68.35;101331.00;682480;29;1383;-79
2022/06/02 01:06:26;;;;;;;17.63;12.07;;;;;;;9.42;68.60;101338.22;687129;28;889;-79
2022/06/02 01:07:06;;;;;;;16.25;11.65;;;;;;;9.38;68.55;101340.59;687894;28;1567;-80
2022/06/02 01:08:05;;;;;;;17.05;11.88;;;;;;;9.38;68.31;101338.88;685163;28;956;-79
2022/06/02 01:08:53;;;;;;;17.27;11.82;;;;;;;9.38;68.07;101338.88;682302;29;1403;-80
2022/06/02 01:09:16;;;;;;;16.05;11.73;;;;;;;9.37;68.09;101341.41;689865;28;1238;-80
2022/06/02 01:10:15;;;;;;;15.50;11.63;;;;;;;9.32;68.28;101334.31;692592;28;1059;-80
2022/06/02 01:11:12;;;;;;;15.48;11.20;;;;;;;9.29;68.65;101334.16;695743;28;1691;-79
2022/06/02 01:12:00;;;;;;;14.52;11.27;;;;;;;9.35;67.97;101346.59;693302;28;1015;-79
2022/06/02 01:12:43;;;;;;;14.38;11.02;;;;;;;9.35;68.28;101348.28;692668;28;1319;-79
2022/06/02 01:13:25;;;;;;;15.63;11.63;;;;;;;9.24;68.20;101330.50;686901;28;1385;-80
2022/06/02 01:14:24;;;;;;;16.75;12.10;;;;;;;9.29;68.42;101335.91;685112;28;1126;-79
2022/06/02 01:14:58;;;;;;;14.70;11.38;;;;;;;9.22;68.33;101326.03;674478;29;1238;-79
2022/06/02 01:16:13;;;;;;;15.30;11.25;;;;;;;9.31;68.09;101344.66;677099;29;1197;-80
2022/06/02 01:16:59;;;;;;;15.93;11.02;;;;;;;9.29;68.30;101348.94;688466;28;1180;-79
2022/06/02 01:17:49;;;;;;;13.57;10.35;;;;;;;9.22;68.46;101339.94;686980;28;1452;-79
2022/06/02 01:18:18;;;;;;;15.25;11.35;;;;;;;9.27;68.29;101350.59;683016;28;1227;-79
2022/06/02 01:18:55;;;;;;;15.50;11.40;;;;;;;9.26;68.37;101340.97;682613;28;1284;-79
2022/06/02 01:19:33;;;;;;;15.98;11.05;;;;;;;9.26;68.02;101351.38;685878;28;1219;-79
2022/06/02 01:20:24;;;;;;;15.63;10.98;;;;;;;9.26;68.00;101346.16;682080;28;1809;-79
2022/06/02 01:21:07;;;;;;;14.95;11.00;;;;;;;9.24;68.28;101343.53;682377;29;1145;-79
2022/06/02 01:21:57;;;;;;;15.70;11.18;;;;;;;9.24;68.16;101342.63;682498;29;942;-80
2022/06/02 01:23:00;;;;;;;15.00;11.27;;;;;;;9.15;68.13;101330.97;684909;28;1289;-80
2022/06/02 01:23:38;;;;;;;18.10;11.68;;;;;;;9.22;68.42;101342.53;689059;28;1968;-80
2022/06/02 01:24:30;;;;;;;17.20;11.60;;;;;;;9.18;68.25;101340.66;687817;28;843;-80
2022/06/02 01:25:03;;;;;;;16.35;11.00;;;;;;;9.22;68.21;101339.94;690540;28;1374;-79
2022/06/02 01:25:36;;;;;;;15.93;11.30;;;;;;;9.16;68.26;101335.38;690420;28;937;-79
2022/06/02 01:26:48;;;;;;;15.02;11.30;;;;;;;9.16;68.39;101329.28;682416;28;912;-79
2022/06/02 01:27:39;;;;;;;17.80;12.10;;;;;;;9.18;68.34;101341.56;685315;28;1289;-79
2022/06/02 01:28:03;;;;;;;15.82;11.77;;;;;;;9.16;68.26;101335.38;687821;28;1448;-79
2022/06/02 01:28:26;;;;;;;15.93;11.55;;;;;;;9.16;68.45;101335.38;682415;28;1326;-80
2022/06/02 01:29:15;;;;;;;15.65;11.43;;;;;;;9.12;68.44;101335.16;682892;28;912;-79
2022/06/02 01:30:00;;;;;;;17.83;11.57;;;;;;;9.15;67.99;101340.53;684225;28;1041;-79
2022/06/02 01:30:48;;;;;;;17.05;11.73;;;;;;;9.14;68.10;101341.31;684787;28;1141;-79
2022/06/02 01:31:33;;;;;;;15.68;11.40;;;;;;;9.12;68.32;101341.28;687539;28;1106;-80
2022/06/02 01:32:02;;;;;;;16.25;11.80;;;;;;;9.10;68.06;101337.69;682551;29;836;-80
2022/06/02 01:32:36;;;;;;;15.68;11.75;;;;;;;9.03;68.47;101318.31;687829;28;1309;-80
2022/06/02 01:33:25;;;;;;;16.85;12.10;;;;;;;9.04;68.18;101329.66;685915;28;866;-79
2022/06/02 01:33:54;;;;;;;15.88;11.70;;;;;;;9.00;67.95;101320.81;689310;28;1117;-79
2022/06/02 01:34:25;;;;;;;17.58;11.27;;;;;;;9.11;68.24;101343.81;685089;28;1198;-80
2022/06/02 01:35:31;;;;;;;18.52;11.60;;;;;;;8.99;68.10;101324.25;686175;28;788;-79
2022/06/02 01:36:09;;;;;;;18.23;12.23;;;;;;;9.03;68.35;101330.47;684978;28;1670;-79
2022/06/02 01:36:41;;;;;;;18.25;11.43;;;;;;;8.98;68.22;101322.44;684974;28;1028;-79
2022/06/02 01:37:29;;;;;;;18.67;11.80;;;;;;;9.07;68.28;101342.78;683580;28;1245;-80
2022/06/02 01:38:01;;;;;;;17.25;11.50;;;;;;;9.01;68.04;101333.00;686968;28;878;-79
2022/06/02 01:38:34;;;;;;;17.17;11.43;;;;;;;9.04;68.13;101340.06;690810;28;1238;-80
2022/06/02 01:39:30;;;;;;;17.45;11.90;;;;;;;9.07;68.39;101344.53;693316;28;767;-79
2022/06/02 01:40:02;;;;;;;17.05;11.75;;;;;;;9.07;68.19;101341.91;685012;28;811;-79
2022/06/02 01:40:43;;;;;;;19.10;11.93;;;;;;;9.06;68.07;101341.00;689756;28;1707;-79
2022/06/02 01:41:29;;;;;;;17.48;11.80;;;;;;;9.05;68.04;101340.09;687509;28;1292;-79
2022/06/02 01:42:00;;;;;;;15.23;11.32;;;;;;;9.00;68.09;101339.03;690384;28;1340;-80
2022/06/02 01:42:46;;;;;;;17.25;11.63;;;;;;;8.95;68.01;101332.72;691340;28;1529;-79
2022/06/02 01:43:17;;;;;;;17.73;12.15;;;;;;;9.00;68.32;101341.63;688195;28;1522;-79
2022/06/02 01:44:01;;;;;;;17.13;12.30;;;;;;;9.02;67.85;101342.59;686575;28;982;-79
2022/06/02 01:44:44;;;;;;;18.30;12.30;;;;;;;9.01;68.04;101347.72;687478;28;1617;-79
2022/06/02 01:45:16;;;;;;;16.98;11.45;;;;;;;8.94;68.04;101335.25;691250;28;1263;-80
2022/06/02 01:45:49;;;;;;;16.80;11.38;;;;;;;8.92;68.20;101332.59;690464;28;912;-79
2022/06/02 01:46:27;;;;;;;16.23;11.43;;;;;;;8.92;68.18;101343.03;691371;28;1339;-80
2022/06/02 01:47:01;;;;;;;14.90;11.10;;;;;;;8.88;67.92;101331.56;690871;28;1267;-79
2022/06/02 01:47:24;;;;;;;14.13;10.98;;;;;;;8.98;68.03;101342.38;690280;28;1277;-79
2022/06/02 01:47:50;;;;;;;13.75;10.98;;;;;;;8.88;68.08;101333.28;687613;28;1682;-79
2022/06/02 01:48:29;;;;;;;14.05;11.00;;;;;;;8.96;68.23;101347.53;687657;28;1265;-79
2022/06/02 01:48:56;;;;;;;14.60;10.80;;;;;;;8.89;68.15;101337.66;682333;29;1466;-79
2022/06/02 01:49:32;;;;;;;15.25;10.77;;;;;;;8.94;68.04;101338.75;685001;28;1262;-80
2022/06/02 01:50:28;;;;;;;16.33;10.85;;;;;;;8.96;67.88;101347.53;687666;28;819;-82
2022/06/02 01:51:04;;;;;;;14.60;10.75;;;;;;;8.87;68.07;101336.72;683225;28;1262;-81
2022/06/02 01:51:54;;;;;;;18.50;11.80;;;;;;;8.92;68.19;101343.03;679620;29;1089;-82
2022/06/02 01:52:32;;;;;;;16.08;11.10;;;;;;;8.92;68.51;101343.03;687623;28;1352;-82
2022/06/02 01:53:34;;;;;;;16.90;11.10;;;;;;;8.91;68.31;101346.44;687847;28;1102;-82
2022/06/02 01:54:27;;;;;;;14.10;10.82;;;;;;;8.90;68.44;101345.53;681953;29;1711;-82
2022/06/02 01:55:11;;;;;;;17.48;11.88;;;;;;;8.89;68.45;101342.88;681344;29;836;-83
2022/06/02 01:55:46;;;;;;;16.00;10.98;;;;;;;8.89;68.27;101354.19;677051;29;1133;-82
2022/06/02 01:56:21;;;;;;;16.00;10.40;;;;;;;8.88;68.21;101352.41;680681;28;1317;-82
2022/06/02 01:56:51;;;;;;;15.48;10.75;;;;;;;8.84;68.15;101344.41;680654;29;863;-82
2022/06/02 01:57:24;;;;;;;16.25;11.00;;;;;;;8.86;68.36;101347.94;673068;29;1338;-81
2022/06/02 01:58:16;;;;;;;16.88;11.05;;;;;;;8.87;67.89;101355.84;677131;29;882;-82
2022/06/02 01:58:44;;;;;;;16.33;11.02;;;;;;;8.82;68.06;101346.91;680839;29;1168;-81
2022/06/02 01:59:26;;;;;;;16.23;11.15;;;;;;;8.84;68.58;101349.59;683826;28;1284;-82
2022/06/02 01:59:56;;;;;;;17.65;11.10;;;;;;;8.86;68.35;101355.75;688667;28;1798;-80
2022/06/02 02:00:23;;;;;;;15.90;10.95;;;;;;;8.77;68.31;101338.00;684745;28;1453;-79
2022/06/02 02:00:51;;;;;;;15.18;11.50;;;;;;;8.75;68.23;101335.34;687336;28;1149;-79
2022/06/02 02:01:26;;;;;;;15.90;11.50;;;;;;;8.86;68.31;101350.56;686238;28;1299;-80
2022/06/02 02:01:59;;;;;;;18.13;11.45;;;;;;;8.88;68.47;101361.91;687782;28;874;-80
2022/06/02 02:02:44;;;;;;;18.23;11.52;;;;;;;8.81;68.40;101344.25;689873;28;1262;-79
2022/06/02 02:03:04;;;;;;;18.05;12.52;;;;;;;8.86;68.42;101360.97;690239;28;1166;-79
2022/06/02 02:03:30;;;;;;;19.10;12.73;;;;;;;8.76;68.35;101342.34;687742;28;1958;-79
2022/06/02 02:04:17;;;;;;;18.73;12.40;;;;;;;8.78;68.53;101344.97;690573;28;850;-79
2022/06/02 02:05:00;;;;;;;18.05;11.73;;;;;;;8.85;68.03;101352.25;689912;28;1215;-79
2022/06/02 02:05:55;;;;;;;18.15;11.70;;;;;;;8.87;68.27;101362.75;687624;28;1630;-79
2022/06/02 02:06:27;;;;;;;18.50;12.25;;;;;;;8.80;68.36;101356.38;686249;28;1045;-79
2022/06/02 02:07:16;;;;;;;18.98;12.00;;;;;;;8.76;68.29;101347.53;687773;28;1141;-79
2022/06/02 02:07:46;;;;;;;19.15;12.55;;;;;;;8.74;67.96;101351.75;687390;28;1354;-79
2022/06/02 02:08:10;;;;;;;20.40;13.10;;;;;;;8.84;68.56;101360.00;689516;28;1146;-79
2022/06/02 02:09:22;;;;;;;19.80;12.82;;;;;;;8.83;68.51;101364.31;687911;28;955;-79
2022/06/02 02:09:59;;;;;;;16.83;11.60;;;;;;;8.73;68.39;101343.91;679021;29;1343;-79
2022/06/02 02:10:36;;;;;;;20.38;12.50;;;;;;;8.76;67.89;101360.56;678966;29;1141;-79
2022/06/02 02:11:32;;;;;;;20.60;12.07;;;;;;;8.81;67.93;101357.25;676909;29;1093;-79
2022/06/02 02:11:56;;;;;;;20.25;12.35;;;;;;;8.74;68.23;101349.16;677048;29;1874;-79
2022/06/02 02:12:53;;;;;;;19.20;12.35;;;;;;;8.79;68.32;101362.41;680001;29;1112;-79
2022/06/02 02:13:32;;;;;;;19.00;12.32;;;;;;;8.78;68.10;101360.59;685430;28;1345;-79
2022/06/02 02:14:10;;;;;;;17.80;12.55;;;;;;;8.74;68.35;101358.69;690474;28;1070;-79
2022/06/02 02:14:51;;;;;;;19.50;12.63;;;;;;;8.75;68.21;101361.38;684912;28;936;-79
2022/06/02 02:15:35;;;;;;;17.58;11.52;;;;;;;8.75;68.43;101361.38;686070;28;1309;-79
2022/06/02 02:15:56;;;;;;;17.98;12.50;;;;;;;8.75;67.86;101365.69;684988;28;1315;-79
2022/06/02 02:16:20;;;;;;;17.20;12.90;;;;;;;8.69;68.49;101348.09;684093;28;1278;-80
2022/06/02 02:17:04;;;;;;;16.80;12.85;;;;;;;8.74;68.17;101358.69;685153;28;1110;-80
2022/06/02 02:17:51;;;;;;;17.23;12.43;;;;;;;8.76;68.50;101363.16;680406;29;1112;-80
2022/06/02 02:18:27;;;;;;;18.63;12.15;;;;;;;8.76;68.15;101363.16;689062;28;1214;-79
2022/06/02 02:19:21;;;;;;;18.98;12.23;;;;;;;8.69;68.18;101350.69;688193;28;934;-79
2022/06/02 02:19:55;;;;;;;20.25;12.25;;;;;;;8.75;68.45;101357.88;687617;28;811;-79
2022/06/02 02:20:44;;;;;;;18.80;12.40;;;;;;;8.77;68.36;101358.81;689549;28;1493;-81
2022/06/02 02:21:22;;;;;;;18.25;12.23;;;;;;;8.76;68.02;101368.34;691160;28;1056;-79
2022/06/02 02:21:49;;;;;;;17.40;12.18;;;;;;;8.65;68.36;101343.53;693517;28;1169;-79
2022/06/02 02:22:27;;;;;;;17.90;12.07;;;;;;;8.68;67.90;101354.13;689980;28;1267;-80
2022/06/02 02:23:13;;;;;;;19.65;12.32;;;;;;;8.70;67.98;101362.88;685182;28;1132;-80
2022/06/02 02:23:55;;;;;;;17.92;11.80;;;;;;;8.73;67.76;101370.81;682831;29;1069;-79
2022/06/02 02:24:47;;;;;;;20.45;12.13;;;;;;;8.73;68.43;101363.00;684621;28;1403;-79
2022/06/02 02:25:16;;;;;;;22.95;12.75;;;;;;;8.65;67.97;101359.16;682871;28;1148;-79
2022/06/02 02:26:06;;;;;;;20.90;13.48;;;;;;;8.71;67.76;101366.34;686221;28;1177;-79
2022/06/02 02:26:41;;;;;;;19.38;12.32;;;;;;;8.57;68.21;101345.78;693726;28;1018;-79
2022/06/02 02:28:02;;;;;;;19.55;12.93;;;;;;;8.72;68.57;101366.44;685467;28;886;-79
2022/06/02 02:28:42;;;;;;;18.55;12.70;;;;;;;8.75;68.38;101365.69;689992;28;1234;-79
2022/06/02 02:29:11;;;;;;;21.60;13.15;;;;;;;8.70;68.58;101362.88;696200;28;1062;-79
2022/06/02 02:30:00;;;;;;;21.60;12.90;;;;;;;8.75;68.19;101369.19;690390;28;993;-79
2022/06/02 02:30:23;;;;;;;20.17;12.93;;;;;;;8.70;68.09;101360.28;688120;28;1595;-79
2022/06/02 02:30:43;;;;;;;21.40;13.20;;;;;;;8.78;68.52;101360.59;685414;28;1563;-79
2022/06/02 02:31:26;;;;;;;20.20;12.50;;;;;;;8.81;68.55;101362.44;684246;28;1185;-79
2022/06/02 02:32:27;;;;;;;20.25;12.30;;;;;;;8.81;68.38;101365.97;682853;29;871;-79
2022/06/02 02:33:07;;;;;;;24.02;12.30;;;;;;;8.77;68.15;101354.53;686197;28;1762;-79
2022/06/02 02:34:05;;;;;;;22.60;13.02;;;;;;;8.83;68.42;101368.66;690942;28;961;-79
2022/06/02 02:35:06;;;;;;;22.92;13.02;;;;;;;8.82;68.49;101366.84;690891;28;932;-79
2022/06/02 02:35:57;;;;;;;21.60;12.63;;;;;;;8.81;68.30;101365.97;690948;28;1036;-79
2022/06/02 02:36:56;;;;;;;21.83;12.68;;;;;;;8.77;67.99;101357.13;692183;28;1161;-79
2022/06/02 02:37:28;;;;;;;19.90;12.50;;;;;;;8.74;68.09;101359.56;685739;28;1207;-79
2022/06/02 02:37:57;;;;;;;21.02;13.32;;;;;;;8.70;68.14;101351.56;685025;28;1212;-79
2022/06/02 02:38:54;;;;;;;23.05;13.55;;;;;;;8.73;68.37;101363.00;687508;28;1243;-79
2022/06/02 02:39:25;;;;;;;22.23;13.70;;;;;;;8.67;68.05;101351.44;689855;28;1178;-80
2022/06/02 02:39:56;;;;;;;19.05;12.65;;;;;;;8.71;68.11;101359.44;687793;28;1385;-79
2022/06/02 02:40:32;;;;;;;20.02;12.93;;;;;;;8.59;68.16;101341.53;685425;28;1242;-79
2022/06/02 02:41:00;;;;;;;21.10;13.30;;;;;;;8.59;67.96;101340.63;685455;28;835;-79
2022/06/02 02:41:51;;;;;;;20.33;12.95;;;;;;;8.70;68.09;101361.97;683744;28;1552;-79
2022/06/02 02:42:28;;;;;;;19.77;12.63;;;;;;;8.68;67.85;101354.13;688612;28;1293;-79
2022/06/02 02:42:59;;;;;;;22.15;13.00;;;;;;;8.62;67.87;101348.63;690282;28;844;-80
2022/06/02 02:43:33;;;;;;;19.45;12.20;;;;;;;8.66;68.09;101357.47;692883;28;1902;-79
2022/06/02 02:44:12;;;;;;;18.45;12.02;;;;;;;8.61;68.16;101349.41;688190;28;969;-79
2022/06/02 02:44:46;;;;;;;20.15;12.60;;;;;;;8.62;68.04;101353.84;682843;28;1419;-80
2022/06/02 02:45:22;;;;;;;21.00;12.10;;;;;;;8.68;68.52;101359.31;686102;28;1317;-80
2022/06/02 02:46:05;;;;;;;23.10;12.82;;;;;;;8.74;68.19;101358.69;689327;28;1140;-79
2022/06/02 02:46:36;;;;;;;24.50;13.68;;;;;;;8.72;68.53;101360.34;689654;28;1016;-79
2022/06/02 02:47:15;;;;;;;23.20;13.82;;;;;;;8.76;68.21;101355.34;691676;28;1520;-79
2022/06/02 02:47:54;;;;;;;24.77;14.00;;;;;;;8.70;68.47;101347.25;692425;28;979;-79
2022/06/02 02:48:26;;;;;;;24.05;13.70;;;;;;;8.81;68.63;101360.75;694365;28;1483;-79
2022/06/02 02:49:02;;;;;;;25.58;13.63;;;;;;;8.80;68.34;101358.06;689318;28;1799;-79
2022/06/02 02:49:40;;;;;;;21.08;13.23;;;;;;;8.80;68.23;101350.28;688317;28;1019;-79
2022/06/02 02:50:10;;;;;;;21.22;13.18;;;;;;;8.75;68.62;101345.75;689897;28;878;-79
2022/06/02 02:50:51;;;;;;;20.85;13.15;;;;;;;8.80;68.14;101352.88;688973;28;1087;-80
2022/06/02 02:51:16;;;;;;;23.70;13.80;;;;;;;8.81;68.15;101354.66;693238;28;1243;-79
2022/06/02 02:52:05;;;;;;;23.77;13.68;;;;;;;8.85;68.02;101362.66;690388;28;1121;-79
2022/06/02 02:52:54;;;;;;;22.52;13.05;;;;;;;8.83;68.26;101366.03;681848;28;844;-79
2022/06/02 02:53:20;;;;;;;21.40;13.57;;;;;;;8.72;68.34;101345.59;685394;28;1891;-79
2022/06/02 02:54:09;;;;;;;22.20;13.95;;;;;;;8.69;68.61;101345.47;685553;28;885;-79
2022/06/02 02:54:44;;;;;;;27.40;14.25;;;;;;;8.77;68.62;101361.44;682539;28;1877;-79
2022/06/02 02:55:15;;;;;;;23.35;13.70;;;;;;;8.71;68.33;101348.13;682855;29;1084;-79
2022/06/02 02:55:51;;;;;;;26.77;14.10;;;;;;;8.73;68.72;101357.78;684396;28;1108;-79
2022/06/02 02:57:56;;;;;;;27.98;15.00;;;;;;;8.76;68.36;101352.75;693369;28;1817;-79
2022/06/02 02:58:24;;;;;;;28.80;15.10;;;;;;;8.77;68.56;101356.22;693339;28;1274;-79
2022/06/02 02:58:50;;;;;;;27.70;15.50;;;;;;;8.81;68.43;101359.84;688032;28;1137;-79
2022/06/02 02:59:19;;;;;;;26.40;15.40;;;;;;;8.84;68.40;101365.22;682754;28;2106;-79
2022/06/02 02:59:57;;;;;;;27.52;15.90;;;;;;;8.75;68.20;101350.97;687572;28;748;-79
2022/06/02 03:00:37;;;;;;;31.15;15.40;;;;;;;8.82;68.31;101357.31;687549;28;1226;-79
2022/06/02 03:02:39;;;;;;;23.30;14.18;;;;;;;8.81;68.29;101370.25;688142;28;1183;-79
2022/06/02 03:03:28;;;;;;;23.83;13.93;;;;;;;8.79;68.25;101366.72;694423;28;934;-79
2022/06/02 03:04:10;;;;;;;26.25;14.10;;;;;;;8.74;68.63;101364.78;688414;28;1005;-79
2022/06/02 03:04:57;;;;;;;25.75;15.18;;;;;;;8.67;68.04;101349.72;685758;28;1087;-79
2022/06/02 03:05:59;;;;;;;26.60;14.30;;;;;;;8.74;68.23;101369.97;685290;28;1218;-80
2022/06/02 03:06:26;;;;;;;29.40;14.40;;;;;;;8.70;68.21;101365.47;687152;28;1150;-78
2022/06/02 03:06:47;;;;;;;25.23;14.35;;;;;;;8.61;68.10;101362.44;685545;28;1208;-79
2022/06/02 03:07:09;;;;;;;24.77;14.43;;;;;;;8.60;68.44;101360.66;689384;28;968;-79
2022/06/02 03:07:31;;;;;;;24.40;14.30;;;;;;;8.61;68.21;101365.03;682796;29;1250;-79
2022/06/02 03:07:52;;;;;;;26.35;14.40;;;;;;;8.68;68.26;101377.53;685422;28;2021;-79
2022/06/02 03:08:34;;;;;;;25.65;14.13;;;;;;;8.64;68.30;101370.41;685440;28;1250;-79
2022/06/02 03:09:16;;;;;;;23.52;13.75;;;;;;;8.65;68.47;101374.78;685453;28;1319;-79
2022/06/02 03:09:52;;;;;;;23.58;14.35;;;;;;;8.65;67.92;101377.38;687518;28;1037;-79
2022/06/02 03:10:30;;;;;;;21.83;13.85;;;;;;;8.59;68.05;101364.03;684438;28;1280;-79